Time;durP1;ratioP1;P1;durP2;ratioP2;P2;SDS_P1;SDS_P2;PMS_P1;PMS_P2;Temp;Humidity;BMP_temperature;BMP_pressure;BME280_temperature;BME280_humidity;BME280_pressure;Samples;Min_cycle;Max_cycle;Signal;HPM_P1;HPM_P2
2023/11/17 00:04:14;;;;;;;;;;;;;;;;;;5058843;28;4459;-69
2023/11/17 00:06:40;;;;;;;;;;;;;;;;;;5050765;28;5104;-69
2023/11/17 00:09:10;;;;;;;;;;;;;;;;;;5066823;28;4469;-69
2023/11/17 00:11:36;;;;;;;;;;;;;;;;;;5051956;28;1174;-69
2023/11/17 00:14:36;;;;;;;;;;;;;;;;;;5057573;28;4606;-69
2023/11/17 00:17:01;;;;;;;;;;;;;;;;;;5052555;28;5056;-69
2023/11/17 00:20:02;;;;;;;;;;;;;;;;;;5055148;28;4958;-70
2023/11/17 00:22:27;;;;;;;;;;;;;;;;;;5054092;28;5344;-71
2023/11/17 00:24:54;;;;;;;;;;;;;;;;;;5050979;28;5062;-69
2023/11/17 00:27:20;;;;;;;;;;;;;;;;;;5074805;28;4492;-70
2023/11/17 00:29:48;;;;;;;;;;;;;;;;;;5045866;28;4882;-69
2023/11/17 00:35:06;;;;;;;;;;;;;;;;;;5059081;28;4501;-70
2023/11/17 00:37:32;;;;;;;;;;;;;;;;;;5052195;28;4988;-70
2023/11/17 00:39:57;;;;;;;;;;;;;;;;;;5050432;28;4641;-68
2023/11/17 00:42:23;;;;;;;;;;;;;;;;;;5056317;28;5044;-70
2023/11/17 00:44:48;;;;;;;;;;;;;;;;;;5056952;28;975;-71
2023/11/17 00:47:15;;;;;;;;;;;;;;;;;;5066662;28;4965;-72
2023/11/17 00:49:42;;;;;;;;;;;;;;;;;;5097323;28;4954;-71
2023/11/17 00:52:08;;;;;;;;;;;;;;;;;;5097562;28;5078;-72
2023/11/17 00:57:36;;;;;;;;;;;;;;;;;;5097852;28;4992;-71
2023/11/17 01:06:08;;;;;;;;;;;;;;;;;;5067954;28;5253;-71
2023/11/17 01:08:42;;;;;;;;;;;;;;;;;;5056166;28;1229;-72
2023/11/17 01:11:11;;;;;;;;;;;;;;;;;;5039145;28;4527;-72
2023/11/17 01:13:37;;;;;;;;;;;;;;;;;;5060038;28;4460;-72
2023/11/17 01:16:02;;;;;;;;;;;;;;;;;;5052788;28;4663;-72
2023/11/17 01:18:28;;;;;;;;;;;;;;;;;;5057347;28;4458;-72
2023/11/17 01:20:53;;;;;;;;;;;;;;;;;;5053596;28;1114;-72
2023/11/17 01:23:18;;;;;;;;;;;;;;;;;;5060510;28;4872;-72
2023/11/17 01:28:53;;;;;;;;;;;;;;;;;;5052049;28;5067;-70
2023/11/17 01:31:20;;;;;;;;;;;;;;;;;;5064814;28;5001;-70
2023/11/17 01:33:46;;;;;;;;;;;;;;;;;;5043435;28;5071;-69
2023/11/17 01:36:27;;;;;;;;;;;;;;;;;;5054444;28;4811;-69
2023/11/17 01:38:55;;;;;;;;;;;;;;;;;;5053250;28;1218;-69
2023/11/17 01:41:20;;;;;;;;;;;;;;;;;;5054858;28;5016;-69
2023/11/17 01:43:47;;;;;;;;;;;;;;;;;;5034874;28;5080;-69
2023/11/17 01:46:12;;;;;;;;;;;;;;;;;;5056590;28;5082;-69
2023/11/17 01:48:38;;;;;;;;;;;;;;;;;;5025575;28;5067;-69
2023/11/17 01:51:04;;;;;;;;;;;;;;;;;;5054359;28;4553;-69
2023/11/17 01:53:30;;;;;;;;;;;;;;;;;;5059565;28;1196;-69
2023/11/17 01:55:55;;;;;;;;;;;;;;;;;;5054909;28;4875;-69
2023/11/17 01:58:21;;;;;;;;;;;;;;;;;;5059673;28;5060;-69
2023/11/17 02:00:46;;;;;;;;;;;;;;;;;;5052907;28;5126;-69
2023/11/17 02:03:15;;;;;;;;;;;;;;;;;;5051518;28;5134;-69
2023/11/17 02:05:41;;;;;;;;;;;;;;;;;;5051640;28;1385;-69
2023/11/17 02:08:25;;;;;;;;;;;;;;;;;;5040668;28;4609;-70
2023/11/17 02:10:57;;;;;;;;;;;;;;;;;;5037973;28;5108;-67
2023/11/17 02:13:26;;;;;;;;;;;;;;;;;;5072698;28;4449;-69
2023/11/17 02:15:55;;;;;;;;;;;;;;;;;;5049184;28;4907;-69
2023/11/17 02:18:22;;;;;;;;;;;;;;;;;;5039014;28;5056;-69
2023/11/17 02:20:52;;;;;;;;;;;;;;;;;;5056145;28;1690;-69
2023/11/17 02:23:18;;;;;;;;;;;;;;;;;;5036290;28;4632;-69
2023/11/17 02:25:59;;;;;;;;;;;;;;;;;;5047676;28;5098;-69
2023/11/17 02:28:34;;;;;;;;;;;;;;;;;;5049385;28;5089;-69
2023/11/17 02:34:14;;;;;;;;;;;;;;;;;;5050807;28;5595;-69
2023/11/17 02:42:42;;;;;;;;;;;;;;;;;;5052494;28;4671;-68
2023/11/17 02:45:18;;;;;;;;;;;;;;;;;;5052123;28;4670;-69
2023/11/17 02:47:46;;;;;;;;;;;;;;;;;;5054764;28;1267;-69
2023/11/17 02:50:18;;;;;;;;;;;;;;;;;;5050244;28;4955;-68
2023/11/17 02:52:52;;;;;;;;;;;;;;;;;;5034584;28;5720;-69
2023/11/17 02:58:10;;;;;;;;;;;;;;;;;;5054682;28;4510;-68
2023/11/17 03:00:35;;;;;;;;;;;;;;;;;;5051403;28;5066;-68
2023/11/17 03:03:27;;;;;;;;;;;;;;;;;;5071589;28;1088;-68
2023/11/17 03:05:59;;;;;;;;;;;;;;;;;;5053474;28;5009;-68
2023/11/17 03:08:24;;;;;;;;;;;;;;;;;;5055035;28;4594;-69
2023/11/17 03:11:12;;;;;;;;;;;;;;;;;;5053277;28;5242;-68
2023/11/17 03:13:39;;;;;;;;;;;;;;;;;;5033114;28;5414;-68
2023/11/17 03:16:05;;;;;;;;;;;;;;;;;;5050319;28;5159;-68
2023/11/17 03:18:38;;;;;;;;;;;;;;;;;;5050931;28;5173;-69
2023/11/17 03:24:37;;;;;;;;;;;;;;;;;;5054790;28;4976;-68
2023/11/17 03:27:03;;;;;;;;;;;;;;;;;;5054548;28;5146;-67
2023/11/17 03:29:28;;;;;;;;;;;;;;;;;;5053724;28;972;-69
2023/11/17 03:31:53;;;;;;;;;;;;;;;;;;5052860;28;4747;-68
2023/11/17 03:37:22;;;;;;;;;;;;;;;;;;5074618;28;4954;-69
2023/11/17 03:39:47;;;;;;;;;;;;;;;;;;5053807;28;5039;-68
2023/11/17 03:42:15;;;;;;;;;;;;;;;;;;5049955;28;5099;-68
2023/11/17 03:44:41;;;;;;;;;;;;;;;;;;5038221;28;1157;-69
2023/11/17 03:47:07;;;;;;;;;;;;;;;;;;5064237;28;4464;-68
2023/11/17 03:49:32;;;;;;;;;;;;;;;;;;5052209;28;4492;-69
2023/11/17 03:51:57;;;;;;;;;;;;;;;;;;5035043;28;4507;-68
2023/11/17 03:57:28;;;;;;;;;;;;;;;;;;5054057;28;5172;-68
2023/11/17 04:02:52;;;;;;;;;;;;;;;;;;5052194;28;5255;-67
2023/11/17 04:05:18;;;;;;;;;;;;;;;;;;5030237;28;5079;-67
2023/11/17 04:07:43;;;;;;;;;;;;;;;;;;5051897;28;4814;-68
2023/11/17 04:10:08;;;;;;;;;;;;;;;;;;5049436;28;4972;-67
2023/11/17 04:18:39;;;;;;;;;;;;;;;;;;5046344;28;5159;-68
2023/11/17 04:21:05;;;;;;;;;;;;;;;;;;5052956;28;4488;-68
2023/11/17 04:23:37;;;;;;;;;;;;;;;;;;5045002;28;1141;-68
2023/11/17 04:26:03;;;;;;;;;;;;;;;;;;5050901;28;4870;-68
2023/11/17 04:28:28;;;;;;;;;;;;;;;;;;5051860;28;4989;-68
2023/11/17 04:30:54;;;;;;;;;;;;;;;;;;5044380;28;5114;-68
2023/11/17 04:33:25;;;;;;;;;;;;;;;;;;5045935;28;5008;-68
2023/11/17 04:35:51;;;;;;;;;;;;;;;;;;5045485;28;1983;-68
2023/11/17 04:38:16;;;;;;;;;;;;;;;;;;5029643;28;4623;-68
2023/11/17 04:40:42;;;;;;;;;;;;;;;;;;5049784;28;4556;-69
2023/11/17 04:43:07;;;;;;;;;;;;;;;;;;5034084;28;4999;-70
2023/11/17 04:45:36;;;;;;;;;;;;;;;;;;5045866;28;4521;-69
2023/11/17 04:48:04;;;;;;;;;;;;;;;;;;5047328;28;982;-68
2023/11/17 04:50:30;;;;;;;;;;;;;;;;;;5039719;28;5045;-70
2023/11/17 04:52:56;;;;;;;;;;;;;;;;;;5060179;28;4530;-69
2023/11/17 04:55:21;;;;;;;;;;;;;;;;;;5060899;28;5063;-68
2023/11/17 04:57:46;;;;;;;;;;;;;;;;;;5067118;28;5023;-68
2023/11/17 05:00:16;;;;;;;;;;;;;;;;;;5053499;28;5055;-68
2023/11/17 05:02:42;;;;;;;;;;;;;;;;;;5033206;28;1197;-68
2023/11/17 05:08:16;;;;;;;;;;;;;;;;;;5049599;28;4675;-70
2023/11/17 05:10:42;;;;;;;;;;;;;;;;;;5051563;28;4900;-67
2023/11/17 05:13:07;;;;;;;;;;;;;;;;;;5017992;28;5080;-69
2023/11/17 05:15:33;;;;;;;;;;;;;;;;;;5051622;28;5015;-68
2023/11/17 05:21:01;;;;;;;;;;;;;;;;;;5077404;28;5037;-68
2023/11/17 05:23:26;;;;;;;;;;;;;;;;;;5090655;28;1224;-68
2023/11/17 05:25:52;;;;;;;;;;;;;;;;;;5068279;28;1113;-68
2023/11/17 05:28:20;;;;;;;;;;;;;;;;;;5073299;28;5117;-68
2023/11/17 05:30:45;;;;;;;;;;;;;;;;;;5069972;28;5066;-68
2023/11/17 05:33:11;;;;;;;;;;;;;;;;;;5071988;28;5135;-68
2023/11/17 05:35:40;;;;;;;;;;;;;;;;;;5051914;28;1905;-68
2023/11/17 05:38:34;;;;;;;;;;;;;;;;;;5070191;28;5055;-69
2023/11/17 05:44:03;;;;;;;;;;;;;;;;;;5076834;28;5047;-76
2023/11/17 05:46:29;;;;;;;;;;;;;;;;;;5076036;28;4970;-68
2023/11/17 05:48:54;;;;;;;;;;;;;;;;;;5076127;28;4918;-61
2023/11/17 05:51:19;;;;;;;;;;;;;;;;;;5062353;28;5174;-61
2023/11/17 05:56:47;;;;;;;;;;;;;;;;;;5056705;28;4711;-62
2023/11/17 05:59:13;;;;;;;;;;;;;;;;;;5055647;28;5061;-61
2023/11/17 06:01:40;;;;;;;;;;;;;;;;;;5021479;28;4885;-62
2023/11/17 06:04:11;;;;;;;;;;;;;;;;;;5062661;28;4604;-63
2023/11/17 06:09:39;;;;;;;;;;;;;;;;;;5076063;28;4620;-62
2023/11/17 06:15:07;;;;;;;;;;;;;;;;;;5075818;28;5018;-62
2023/11/17 06:17:35;;;;;;;;;;;;;;;;;;5076028;28;1981;-60
2023/11/17 06:20:03;;;;;;;;;;;;;;;;;;5075442;28;4939;-59
2023/11/17 06:22:28;;;;;;;;;;;;;;;;;;5057209;28;4651;-60
2023/11/17 06:27:56;;;;;;;;;;;;;;;;;;5075601;28;5163;-59
2023/11/17 06:33:24;;;;;;;;;;;;;;;;;;5075557;28;5028;-60
2023/11/17 06:35:49;;;;;;;;;;;;;;;;;;5075430;28;1910;-60
2023/11/17 06:38:16;;;;;;;;;;;;;;;;;;5075511;28;4877;-61
2023/11/17 06:47:08;;;;;;;;;;;;;;;;;;5047558;28;5091;-59
2023/11/17 06:49:42;;;;;;;;;;;;;;;;;;5068707;28;4602;-61
2023/11/17 06:52:08;;;;;;;;;;;;;;;;;;5051122;28;4907;-60
2023/11/17 06:54:33;;;;;;;;;;;;;;;;;;5048740;28;2296;-61
2023/11/17 07:03:22;;;;;;;;;;;;;;;;;;5051465;28;5115;-63
2023/11/17 07:05:48;;;;;;;;;;;;;;;;;;5051881;28;1134;-63
2023/11/17 07:08:13;;;;;;;;;;;;;;;;;;5050844;28;4573;-61
2023/11/17 07:10:42;;;;;;;;;;;;;;;;;;5034276;28;4943;-63
2023/11/17 07:16:12;;;;;;;;;;;;;;;;;;5054690;28;5092;-63
2023/11/17 07:24:43;;;;;;;;;;;;;;;;;;5059334;28;5355;-63
2023/11/17 07:27:11;;;;;;;;;;;;;;;;;;5036483;28;4485;-61
2023/11/17 07:29:36;;;;;;;;;;;;;;;;;;5037181;28;1139;-61
2023/11/17 07:35:06;;;;;;;;;;;;;;;;;;5054621;28;4660;-62
2023/11/17 07:37:31;;;;;;;;;;;;;;;;;;5050436;28;4689;-59
2023/11/17 07:39:56;;;;;;;;;;;;;;;;;;5052964;28;4822;-60
2023/11/17 07:42:23;;;;;;;;;;;;;;;;;;5065340;28;5092;-59
2023/11/17 07:47:53;;;;;;;;;;;;;;;;;;5047311;28;4752;-60
2023/11/17 07:50:19;;;;;;;;;;;;;;;;;;5030615;28;5066;-61
2023/11/17 07:52:45;;;;;;;;;;;;;;;;;;5053990;28;4709;-61
2023/11/17 07:55:13;;;;;;;;;;;;;;;;;;5052024;28;4498;-63
2023/11/17 08:03:45;;;;;;;;;;;;;;;;;;5060087;28;4997;-63
2023/11/17 08:06:10;;;;;;;;;;;;;;;;;;5040333;28;4946;-60
2023/11/17 08:08:39;;;;;;;;;;;;;;;;;;5031722;28;995;-61
2023/11/17 08:11:16;;;;;;;;;;;;;;;;;;5051826;28;5022;-61
2023/11/17 08:14:16;;;;;;;;;;;;;;;;;;5050350;28;4854;-62
2023/11/17 08:16:41;;;;;;;;;;;;;;;;;;5050503;28;5077;-61
2023/11/17 08:19:09;;;;;;;;;;;;;;;;;;5068493;28;4881;-61
2023/11/17 08:21:35;;;;;;;;;;;;;;;;;;5056248;28;4498;-62
2023/11/17 08:24:01;;;;;;;;;;;;;;;;;;5051235;28;1065;-61
2023/11/17 08:26:32;;;;;;;;;;;;;;;;;;5051692;28;4620;-61
2023/11/17 08:28:58;;;;;;;;;;;;;;;;;;5049156;28;5064;-61
2023/11/17 08:34:36;;;;;;;;;;;;;;;;;;5051956;28;5002;-61
2023/11/17 08:37:14;;;;;;;;;;;;;;;;;;5059732;28;5126;-60
2023/11/17 08:39:41;;;;;;;;;;;;;;;;;;5047469;28;5157;-62
2023/11/17 08:42:06;;;;;;;;;;;;;;;;;;5050905;28;4750;-61
2023/11/17 08:44:32;;;;;;;;;;;;;;;;;;5034735;28;1319;-61
2023/11/17 08:46:59;;;;;;;;;;;;;;;;;;5053680;28;4479;-60
2023/11/17 08:49:25;;;;;;;;;;;;;;;;;;5050939;28;5057;-58
2023/11/17 08:51:51;;;;;;;;;;;;;;;;;;5053114;28;4587;-60
2023/11/17 08:54:17;;;;;;;;;;;;;;;;;;5060063;28;4469;-60
2023/11/17 08:56:47;;;;;;;;;;;;;;;;;;5064404;28;1914;-60
2023/11/17 08:59:12;;;;;;;;;;;;;;;;;;5035889;28;4760;-61
2023/11/17 09:01:39;;;;;;;;;;;;;;;;;;5058913;28;4864;-60
2023/11/17 09:10:09;;;;;;;;;;;;;;;;;;5071249;28;5237;-60
2023/11/17 09:15:38;;;;;;;;;;;;;;;;;;5055542;28;4595;-58
2023/11/17 09:18:03;;;;;;;;;;;;;;;;;;5054250;28;4957;-59
2023/11/17 09:20:29;;;;;;;;;;;;;;;;;;5036278;28;1632;-61
2023/11/17 09:28:59;;;;;;;;;;;;;;;;;;5056883;28;4444;-60
2023/11/17 09:37:20;;;;;;;;;;;;;;;;;;5053471;28;4681;-58
2023/11/17 09:39:46;;;;;;;;;;;;;;;;;;5053615;28;4647;-59
2023/11/17 09:42:12;;;;;;;;;;;;;;;;;;5053223;28;4897;-59
2023/11/17 09:44:55;;;;;;;;;;;;;;;;;;5035934;28;1093;-59
2023/11/17 09:47:21;;;;;;;;;;;;;;;;;;5068682;28;4651;-59
2023/11/17 09:49:47;;;;;;;;;;;;;;;;;;5053405;28;5053;-59
2023/11/17 09:52:14;;;;;;;;;;;;;;;;;;5051648;28;5075;-59
2023/11/17 09:54:39;;;;;;;;;;;;;;;;;;5034158;28;4629;-59
2023/11/17 09:57:06;;;;;;;;;;;;;;;;;;5034224;28;4633;-58
2023/11/17 10:02:36;;;;;;;;;;;;;;;;;;5055837;28;4959;-58
2023/11/17 10:05:10;;;;;;;;;;;;;;;;;;5038298;28;5016;-59
2023/11/17 10:07:38;;;;;;;;;;;;;;;;;;5049228;28;5131;-59
2023/11/17 10:10:42;;;;;;;;;;;;;;;;;;5027734;28;4600;-59
2023/11/17 10:13:11;;;;;;;;;;;;;;;;;;5053105;28;4442;-59
2023/11/17 10:15:37;;;;;;;;;;;;;;;;;;5018698;28;4990;-59
2023/11/17 10:18:07;;;;;;;;;;;;;;;;;;5034889;28;4610;-57
2023/11/17 10:20:46;;;;;;;;;;;;;;;;;;5054738;28;971;-60
2023/11/17 10:23:12;;;;;;;;;;;;;;;;;;5052870;28;5030;-60
2023/11/17 10:25:38;;;;;;;;;;;;;;;;;;5050280;28;4437;-59
2023/11/17 10:28:12;;;;;;;;;;;;;;;;;;5050189;28;4647;-60
2023/11/17 10:30:37;;;;;;;;;;;;;;;;;;5053698;28;5093;-61
2023/11/17 10:33:20;;;;;;;;;;;;;;;;;;5033044;28;4953;-58
2023/11/17 10:36:00;;;;;;;;;;;;;;;;;;5054266;28;1913;-59
2023/11/17 10:38:26;;;;;;;;;;;;;;;;;;5046173;28;4915;-59
2023/11/17 10:40:52;;;;;;;;;;;;;;;;;;5051760;28;4442;-60
2023/11/17 10:43:44;;;;;;;;;;;;;;;;;;5050312;28;5061;-60
2023/11/17 10:46:09;;;;;;;;;;;;;;;;;;5032883;28;4617;-59
2023/11/17 10:48:35;;;;;;;;;;;;;;;;;;5055175;28;5124;-59
2023/11/17 10:51:04;;;;;;;;;;;;;;;;;;5029371;28;1307;-62
2023/11/17 10:53:30;;;;;;;;;;;;;;;;;;5048798;28;5033;-61
2023/11/17 10:55:57;;;;;;;;;;;;;;;;;;5049416;28;4501;-60
2023/11/17 10:58:24;;;;;;;;;;;;;;;;;;5038943;28;4478;-60
2023/11/17 11:00:50;;;;;;;;;;;;;;;;;;5050488;28;4477;-60
2023/11/17 11:03:16;;;;;;;;;;;;;;;;;;5061437;28;4926;-61
2023/11/17 11:08:50;;;;;;;;;;;;;;;;;;5074867;28;4763;-61
2023/11/17 11:11:20;;;;;;;;;;;;;;;;;;5051677;28;5308;-60
2023/11/17 11:13:46;;;;;;;;;;;;;;;;;;5050411;28;4743;-61
2023/11/17 11:16:11;;;;;;;;;;;;;;;;;;5045480;28;5150;-58
2023/11/17 11:18:47;;;;;;;;;;;;;;;;;;5050953;28;5054;-63
2023/11/17 11:21:16;;;;;;;;;;;;;;;;;;5036566;28;4456;-58
2023/11/17 11:26:44;;;;;;;;;;;;;;;;;;5055369;28;4745;-59
2023/11/17 11:29:12;;;;;;;;;;;;;;;;;;5048053;28;4697;-59
2023/11/17 11:31:37;;;;;;;;;;;;;;;;;;5050780;28;5111;-59
2023/11/17 11:34:03;;;;;;;;;;;;;;;;;;5049729;28;5059;-59
2023/11/17 11:48:38;;;;;;;;;;;;;;;;;;5066829;28;5116;-58
2023/11/17 11:51:08;;;;;;;;;;;;;;;;;;5044168;28;4537;-57
2023/11/17 11:53:59;;;;;;;;;;;;;;;;;;5052819;28;1055;-59
2023/11/17 11:56:31;;;;;;;;;;;;;;;;;;5050502;28;5040;-59
2023/11/17 11:58:57;;;;;;;;;;;;;;;;;;5051849;28;4577;-59
2023/11/17 12:01:23;;;;;;;;;;;;;;;;;;5032147;28;4818;-59
2023/11/17 12:03:52;;;;;;;;;;;;;;;;;;5050580;28;4973;-59
2023/11/17 12:06:21;;;;;;;;;;;;;;;;;;5048042;28;5171;-59
2023/11/17 12:08:54;;;;;;;;;;;;;;;;;;5049172;28;1369;-59
2023/11/17 12:17:42;;;;;;;;;;;;;;;;;;5061304;28;4404;-59
2023/11/17 12:20:26;;;;;;;;;;;;;;;;;;5057651;28;4944;-57
2023/11/17 12:23:01;;;;;;;;;;;;;;;;;;5052558;28;4579;-59
2023/11/17 12:25:30;;;;;;;;;;;;;;;;;;5042425;28;4777;-61
2023/11/17 12:27:56;;;;;;;;;;;;;;;;;;5039830;28;4618;-60
2023/11/17 12:30:21;;;;;;;;;;;;;;;;;;5026719;28;4545;-59
2023/11/17 12:33:18;;;;;;;;;;;;;;;;;;5057979;28;1090;-59
2023/11/17 12:36:23;;;;;;;;;;;;;;;;;;5040677;28;4469;-60
2023/11/17 12:38:56;;;;;;;;;;;;;;;;;;5062664;28;4664;-60
2023/11/17 12:41:22;;;;;;;;;;;;;;;;;;5060291;28;4403;-58
2023/11/17 12:43:49;;;;;;;;;;;;;;;;;;5043558;28;4972;-59
2023/11/17 12:46:14;;;;;;;;;;;;;;;;;;5055189;28;5151;-60
2023/11/17 12:48:40;;;;;;;;;;;;;;;;;;5056148;28;4440;-59
2023/11/17 12:51:05;;;;;;;;;;;;;;;;;;5028414;28;4756;-59
2023/11/17 12:53:39;;;;;;;;;;;;;;;;;;5061990;28;1244;-58
2023/11/17 12:56:05;;;;;;;;;;;;;;;;;;5062425;28;4969;-58
2023/11/17 12:58:30;;;;;;;;;;;;;;;;;;5036842;28;4885;-60
2023/11/17 13:01:14;;;;;;;;;;;;;;;;;;5056752;28;4484;-59
2023/11/17 13:03:43;;;;;;;;;;;;;;;;;;5055185;28;4953;-59
2023/11/17 13:06:08;;;;;;;;;;;;;;;;;;5061904;28;4631;-59
2023/11/17 13:08:34;;;;;;;;;;;;;;;;;;5066259;28;1016;-59
2023/11/17 13:11:00;;;;;;;;;;;;;;;;;;5036750;28;5546;-60
2023/11/17 13:13:27;;;;;;;;;;;;;;;;;;5059969;28;4879;-60
2023/11/17 13:15:53;;;;;;;;;;;;;;;;;;5041739;28;5076;-59
2023/11/17 13:18:18;;;;;;;;;;;;;;;;;;5058641;28;5043;-58
2023/11/17 13:20:44;;;;;;;;;;;;;;;;;;5058588;28;1288;-59
2023/11/17 13:23:09;;;;;;;;;;;;;;;;;;5068930;28;5047;-59
2023/11/17 13:25:46;;;;;;;;;;;;;;;;;;5067963;28;5075;-59
2023/11/17 13:28:11;;;;;;;;;;;;;;;;;;5030695;28;4653;-59
2023/11/17 13:33:41;;;;;;;;;;;;;;;;;;5075789;28;4368;-60
2023/11/17 13:36:07;;;;;;;;;;;;;;;;;;5061127;28;4973;-58
2023/11/17 13:38:32;;;;;;;;;;;;;;;;;;5036501;28;1068;-59
2023/11/17 13:40:58;;;;;;;;;;;;;;;;;;5056468;28;4686;-59
2023/11/17 13:43:23;;;;;;;;;;;;;;;;;;5053735;28;4948;-58
2023/11/17 13:45:50;;;;;;;;;;;;;;;;;;5052231;28;4514;-59
2023/11/17 13:48:15;;;;;;;;;;;;;;;;;;5052595;28;4968;-59
2023/11/17 13:50:54;;;;;;;;;;;;;;;;;;5064293;28;1175;-57
2023/11/17 13:53:29;;;;;;;;;;;;;;;;;;5059982;28;5160;-59
2023/11/17 13:55:55;;;;;;;;;;;;;;;;;;5050429;28;4439;-58
2023/11/17 14:01:36;;;;;;;;;;;;;;;;;;5052548;28;4654;-59
2023/11/17 14:04:03;;;;;;;;;;;;;;;;;;5052195;28;4929;-59
2023/11/17 14:06:29;;;;;;;;;;;;;;;;;;5056358;28;4480;-59
2023/11/17 14:09:21;;;;;;;;;;;;;;;;;;5054365;28;967;-58
2023/11/17 14:11:47;;;;;;;;;;;;;;;;;;5052543;28;5161;-58
2023/11/17 14:14:15;;;;;;;;;;;;;;;;;;5037213;28;4659;-59
2023/11/17 14:16:40;;;;;;;;;;;;;;;;;;5060424;28;4544;-59
2023/11/17 14:19:05;;;;;;;;;;;;;;;;;;5051184;28;5017;-59
2023/11/17 14:21:31;;;;;;;;;;;;;;;;;;5053608;28;5098;-59
2023/11/17 14:23:57;;;;;;;;;;;;;;;;;;5052429;28;1443;-58
2023/11/17 14:26:24;;;;;;;;;;;;;;;;;;5035994;28;4639;-59
2023/11/17 14:28:50;;;;;;;;;;;;;;;;;;5056141;28;4664;-59
2023/11/17 14:31:16;;;;;;;;;;;;;;;;;;5055548;28;4657;-59
2023/11/17 14:33:41;;;;;;;;;;;;;;;;;;5060295;28;4814;-58
2023/11/17 14:36:06;;;;;;;;;;;;;;;;;;5056581;28;5041;-59
2023/11/17 14:38:32;;;;;;;;;;;;;;;;;;5050072;28;1199;-59
2023/11/17 14:41:09;;;;;;;;;;;;;;;;;;5050028;28;5297;-59
2023/11/17 14:43:34;;;;;;;;;;;;;;;;;;5054493;28;5023;-58
2023/11/17 14:45:59;;;;;;;;;;;;;;;;;;5055242;28;4403;-59
2023/11/17 14:55:17;;;;;;;;;;;;;;;;;;5070793;28;4928;-58
2023/11/17 14:57:42;;;;;;;;;;;;;;;;;;5054844;28;5028;-59
2023/11/17 15:00:25;;;;;;;;;;;;;;;;;;5055436;28;5393;-59
2023/11/17 15:11:59;;;;;;;;;;;;;;;;;;5055153;28;5559;-59
2023/11/17 15:14:26;;;;;;;;;;;;;;;;;;5054985;28;1077;-58
2023/11/17 15:16:51;;;;;;;;;;;;;;;;;;5052953;28;4895;-58
2023/11/17 15:19:19;;;;;;;;;;;;;;;;;;5054297;28;4855;-58
2023/11/17 15:24:47;;;;;;;;;;;;;;;;;;5054566;28;5039;-58
2023/11/17 15:27:13;;;;;;;;;;;;;;;;;;5054195;28;4415;-58
2023/11/17 15:29:39;;;;;;;;;;;;;;;;;;5055001;28;1258;-57
2023/11/17 15:32:07;;;;;;;;;;;;;;;;;;5054475;28;4693;-57
2023/11/17 15:34:33;;;;;;;;;;;;;;;;;;5036414;28;6757;-57
2023/11/17 15:37:00;;;;;;;;;;;;;;;;;;5048678;28;5129;-57
2023/11/17 15:39:30;;;;;;;;;;;;;;;;;;5011885;28;4485;-58
2023/11/17 15:41:55;;;;;;;;;;;;;;;;;;5043438;28;1242;-57
2023/11/17 15:44:22;;;;;;;;;;;;;;;;;;5040817;28;4965;-58
2023/11/17 15:46:47;;;;;;;;;;;;;;;;;;5027576;28;4628;-58
2023/11/17 15:49:14;;;;;;;;;;;;;;;;;;5047176;28;5478;-57
2023/11/17 15:51:40;;;;;;;;;;;;;;;;;;5052746;28;5098;-62
2023/11/17 15:54:07;;;;;;;;;;;;;;;;;;5027859;28;4661;-57
2023/11/17 15:56:33;;;;;;;;;;;;;;;;;;5042627;28;1989;-58
2023/11/17 15:59:02;;;;;;;;;;;;;;;;;;5051880;28;4480;-58
2023/11/17 16:01:27;;;;;;;;;;;;;;;;;;5052045;28;4458;-58
2023/11/17 16:03:53;;;;;;;;;;;;;;;;;;5053806;28;4618;-57
2023/11/17 16:06:19;;;;;;;;;;;;;;;;;;5057620;28;5057;-58
2023/11/17 16:08:52;;;;;;;;;;;;;;;;;;5037169;28;1382;-57
2023/11/17 16:17:35;;;;;;;;;;;;;;;;;;5056998;28;4428;-58
2023/11/17 16:20:00;;;;;;;;;;;;;;;;;;5060837;28;4983;-59
2023/11/17 16:22:25;;;;;;;;;;;;;;;;;;5052240;28;5212;-58
2023/11/17 16:24:50;;;;;;;;;;;;;;;;;;5035205;28;4653;-58
2023/11/17 16:33:11;;;;;;;;;;;;;;;;;;5073449;28;4485;-59
2023/11/17 16:35:37;;;;;;;;;;;;;;;;;;5070016;28;2475;-58
2023/11/17 16:38:04;;;;;;;;;;;;;;;;;;5073311;28;4682;-58
2023/11/17 16:40:30;;;;;;;;;;;;;;;;;;5074045;28;4578;-58
2023/11/17 16:42:58;;;;;;;;;;;;;;;;;;5055791;28;5012;-58
2023/11/17 16:45:24;;;;;;;;;;;;;;;;;;5073627;28;4667;-57
2023/11/17 16:47:52;;;;;;;;;;;;;;;;;;5056080;28;1098;-58
2023/11/17 16:53:20;;;;;;;;;;;;;;;;;;5073387;28;4504;-57
2023/11/17 16:56:29;;;;;;;;;;;;;;;;;;5051675;28;5014;-58
2023/11/17 16:59:36;;;;;;;;;;;;;;;;;;5048578;28;5040;-58
2023/11/17 17:02:13;;;;;;;;;;;;;;;;;;5039932;28;5145;-62
2023/11/17 17:04:42;;;;;;;;;;;;;;;;;;5056500;28;5099;-59
2023/11/17 17:07:10;;;;;;;;;;;;;;;;;;5057497;28;4567;-57
2023/11/17 17:09:36;;;;;;;;;;;;;;;;;;5052000;28;5038;-58
2023/11/17 17:12:03;;;;;;;;;;;;;;;;;;5048907;28;3197;-57
2023/11/17 17:14:33;;;;;;;;;;;;;;;;;;5049227;28;4952;-57
2023/11/17 17:16:58;;;;;;;;;;;;;;;;;;5057054;28;4665;-57
2023/11/17 17:19:29;;;;;;;;;;;;;;;;;;5035263;28;5442;-71
2023/11/17 17:28:04;;;;;;;;;;;;;;;;;;5050553;28;5118;-61
2023/11/17 17:33:56;;;;;;;;;;;;;;;;;;5053527;28;5953;-60
2023/11/17 17:36:23;;;;;;;;;;;;;;;;;;5046743;28;5177;-60
2023/11/17 17:38:49;;;;;;;;;;;;;;;;;;5032062;28;2732;-60
2023/11/17 17:41:19;;;;;;;;;;;;;;;;;;5038817;28;4890;-60
2023/11/17 17:43:44;;;;;;;;;;;;;;;;;;5038832;28;4446;-60
2023/11/17 17:46:09;;;;;;;;;;;;;;;;;;5053839;28;5184;-60
2023/11/17 17:48:36;;;;;;;;;;;;;;;;;;5036466;28;5022;-60
2023/11/17 17:51:02;;;;;;;;;;;;;;;;;;5053287;28;975;-61
2023/11/17 17:53:33;;;;;;;;;;;;;;;;;;5051529;28;5111;-61
2023/11/17 17:55:59;;;;;;;;;;;;;;;;;;5045512;28;5112;-59
2023/11/17 17:58:41;;;;;;;;;;;;;;;;;;5052540;28;5007;-61
2023/11/17 18:04:11;;;;;;;;;;;;;;;;;;5056433;28;4428;-61
2023/11/17 18:06:37;;;;;;;;;;;;;;;;;;5051972;28;4981;-60
2023/11/17 18:09:02;;;;;;;;;;;;;;;;;;5068260;28;1077;-60
2023/11/17 18:11:29;;;;;;;;;;;;;;;;;;5052099;28;4854;-59
2023/11/17 18:13:54;;;;;;;;;;;;;;;;;;5049947;28;5002;-59
2023/11/17 18:16:21;;;;;;;;;;;;;;;;;;5056981;28;4512;-59
2023/11/17 18:18:47;;;;;;;;;;;;;;;;;;5057215;28;5280;-61
2023/11/17 18:27:42;;;;;;;;;;;;;;;;;;5053997;28;5056;-60
2023/11/17 18:30:08;;;;;;;;;;;;;;;;;;5051784;28;4457;-61
2023/11/17 18:32:33;;;;;;;;;;;;;;;;;;5052136;28;1097;-60
2023/11/17 18:38:23;;;;;;;;;;;;;;;;;;5060415;28;5190;-60
2023/11/17 18:40:48;;;;;;;;;;;;;;;;;;5053295;28;4939;-59
2023/11/17 18:43:14;;;;;;;;;;;;;;;;;;5053332;28;5013;-59
2023/11/17 18:45:39;;;;;;;;;;;;;;;;;;5052694;28;4461;-59
2023/11/17 18:48:09;;;;;;;;;;;;;;;;;;5055167;28;5122;-59
2023/11/17 18:50:40;;;;;;;;;;;;;;;;;;5052187;28;887;-60
2023/11/17 18:53:05;;;;;;;;;;;;;;;;;;5070120;28;4851;-60
2023/11/17 18:55:41;;;;;;;;;;;;;;;;;;5070029;28;4554;-60
2023/11/17 18:58:07;;;;;;;;;;;;;;;;;;5063468;28;5041;-60
2023/11/17 19:00:33;;;;;;;;;;;;;;;;;;5051165;28;5147;-60
2023/11/17 19:03:22;;;;;;;;;;;;;;;;;;5050120;28;961;-60
2023/11/17 19:05:51;;;;;;;;;;;;;;;;;;5053405;28;4675;-60
2023/11/17 19:08:17;;;;;;;;;;;;;;;;;;5048991;28;5057;-61
2023/11/17 19:10:44;;;;;;;;;;;;;;;;;;5041422;28;4674;-59
2023/11/17 19:22:18;;;;;;;;;;;;;;;;;;5054428;28;4841;-59
2023/11/17 19:24:43;;;;;;;;;;;;;;;;;;5054209;28;5055;-59
2023/11/17 19:27:14;;;;;;;;;;;;;;;;;;5054404;28;4431;-58
2023/11/17 19:32:43;;;;;;;;;;;;;;;;;;5055390;28;4573;-58
2023/11/17 19:35:09;;;;;;;;;;;;;;;;;;5046728;28;4968;-59
2023/11/17 19:37:35;;;;;;;;;;;;;;;;;;5074146;28;5107;-59
2023/11/17 19:40:05;;;;;;;;;;;;;;;;;;5065018;28;4843;-59
2023/11/17 19:42:41;;;;;;;;;;;;;;;;;;5057458;28;5096;-58
2023/11/17 19:45:15;;;;;;;;;;;;;;;;;;5036527;28;4759;-59
2023/11/17 19:50:43;;;;;;;;;;;;;;;;;;5074956;28;4560;-59
2023/11/17 19:53:09;;;;;;;;;;;;;;;;;;5073632;28;5010;-59
2023/11/17 19:55:36;;;;;;;;;;;;;;;;;;5074289;28;4699;-57
2023/11/17 20:04:43;;;;;;;;;;;;;;;;;;5063835;28;4628;-60
2023/11/17 20:07:39;;;;;;;;;;;;;;;;;;5074801;28;5039;-59
2023/11/17 20:13:07;;;;;;;;;;;;;;;;;;5054033;28;4369;-59
2023/11/17 20:15:33;;;;;;;;;;;;;;;;;;5053459;28;4848;-59
2023/11/17 20:17:58;;;;;;;;;;;;;;;;;;5036646;28;1981;-58
2023/11/17 20:20:24;;;;;;;;;;;;;;;;;;5054124;28;4634;-59
2023/11/17 20:25:53;;;;;;;;;;;;;;;;;;5052329;28;4544;-59
2023/11/17 20:28:20;;;;;;;;;;;;;;;;;;5034292;28;5148;-58
2023/11/17 20:30:45;;;;;;;;;;;;;;;;;;5054280;28;5025;-58
2023/11/17 20:33:16;;;;;;;;;;;;;;;;;;5053962;28;4853;-59
2023/11/17 20:38:44;;;;;;;;;;;;;;;;;;5054520;28;4587;-59
2023/11/17 20:41:10;;;;;;;;;;;;;;;;;;5054168;28;5018;-59
2023/11/17 20:43:35;;;;;;;;;;;;;;;;;;5057709;28;5095;-58
2023/11/17 20:46:01;;;;;;;;;;;;;;;;;;5039670;28;4457;-58
2023/11/17 20:51:28;;;;;;;;;;;;;;;;;;5057599;28;4428;-58
2023/11/17 20:53:54;;;;;;;;;;;;;;;;;;5062557;28;3216;-59
2023/11/17 20:56:19;;;;;;;;;;;;;;;;;;5070446;28;4571;-58
2023/11/17 20:58:44;;;;;;;;;;;;;;;;;;5055394;28;4990;-58
2023/11/17 21:01:12;;;;;;;;;;;;;;;;;;5060220;28;5043;-59
2023/11/17 21:03:37;;;;;;;;;;;;;;;;;;5057084;28;4904;-59
2023/11/17 21:06:03;;;;;;;;;;;;;;;;;;5071209;28;1503;-58
2023/11/17 21:08:29;;;;;;;;;;;;;;;;;;5059839;28;5143;-59
2023/11/17 21:10:55;;;;;;;;;;;;;;;;;;5051107;28;5029;-58
2023/11/17 21:13:20;;;;;;;;;;;;;;;;;;5064625;28;5055;-58
2023/11/17 21:15:45;;;;;;;;;;;;;;;;;;5052853;28;5109;-59
2023/11/17 21:18:12;;;;;;;;;;;;;;;;;;5043885;28;5441;-58
2023/11/17 21:20:37;;;;;;;;;;;;;;;;;;5043743;28;3377;-58
2023/11/17 21:23:03;;;;;;;;;;;;;;;;;;5066907;28;4922;-59
2023/11/17 21:25:29;;;;;;;;;;;;;;;;;;5039065;28;5014;-59
2023/11/17 21:28:26;;;;;;;;;;;;;;;;;;5073913;28;5084;-59